Time;durP1;ratioP1;P1;durP2;ratioP2;P2;SDS_P1;SDS_P2;PMS_P1;PMS_P2;Temp;Humidity;BMP_temperature;BMP_pressure;BME280_temperature;BME280_humidity;BME280_pressure;Samples;Min_cycle;Max_cycle;Signal;HPM_P1;HPM_P2
2021/09/19 00:01:14;;;;;;;6.45;4.68;;;;;;;;;;5024193;28;20201;-48
2021/09/19 00:03:41;;;;;;;4.38;4.00;;;;;;;;;;5014994;28;20184;-48
2021/09/19 00:06:07;;;;;;;4.60;4.20;;;;;;;;;;5015898;28;20172;-48
2021/09/19 00:08:36;;;;;;;4.40;4.00;;;;;;;;;;5015687;28;20195;-47
2021/09/19 00:11:02;;;;;;;4.47;4.15;;;;;;;;;;5015660;28;20188;-48
2021/09/19 00:13:28;;;;;;;4.75;4.22;;;;;;;;;;5026120;28;20184;-48
2021/09/19 00:15:54;;;;;;;4.55;4.15;;;;;;;;;;5015763;28;20199;-48
2021/09/19 00:18:21;;;;;;;3.88;3.58;;;;;;;;;;5014576;28;20205;-50
2021/09/19 00:20:46;;;;;;;3.88;3.53;;;;;;;;;;5023618;28;20180;-49
2021/09/19 00:23:13;;;;;;;4.32;3.92;;;;;;;;;;5016562;28;20194;-49
2021/09/19 00:25:39;;;;;;;4.25;3.85;;;;;;;;;;5015671;28;20563;-50
2021/09/19 00:28:05;;;;;;;4.13;3.72;;;;;;;;;;5015001;28;20172;-50
2021/09/19 00:30:32;;;;;;;3.67;3.38;;;;;;;;;;5015411;28;20188;-50
2021/09/19 00:32:59;;;;;;;3.80;3.50;;;;;;;;;;5019918;28;20183;-48
2021/09/19 00:35:25;;;;;;;3.78;3.47;;;;;;;;;;5024711;28;20199;-48
2021/09/19 00:37:51;;;;;;;4.35;3.30;;;;;;;;;;5014615;28;20208;-48
2021/09/19 00:40:17;;;;;;;3.55;3.22;;;;;;;;;;5015533;28;20233;-48
2021/09/19 00:42:43;;;;;;;3.70;3.10;;;;;;;;;;5015167;28;20165;-48
2021/09/19 00:45:11;;;;;;;4.07;3.60;;;;;;;;;;5021866;28;20583;-48
2021/09/19 00:47:37;;;;;;;3.75;3.40;;;;;;;;;;5029151;28;20203;-48
2021/09/19 00:50:03;;;;;;;3.67;3.22;;;;;;;;;;5014939;28;20184;-48
2021/09/19 00:52:29;;;;;;;3.72;3.42;;;;;;;;;;5015051;28;20271;-47
2021/09/19 00:54:59;;;;;;;4.60;3.40;;;;;;;;;;5020150;28;20210;-48
2021/09/19 00:57:26;;;;;;;3.30;3.10;;;;;;;;;;5034323;28;20446;-48
2021/09/19 00:59:52;;;;;;;3.20;3.00;;;;;;;;;;5027723;28;20212;-48
2021/09/19 01:02:18;;;;;;;4.03;3.30;;;;;;;;;;5019919;28;20226;-48
2021/09/19 01:04:44;;;;;;;4.25;3.20;;;;;;;;;;5014983;28;20466;-48
2021/09/19 01:07:10;;;;;;;3.38;3.17;;;;;;;;;;5014768;28;20187;-47
2021/09/19 01:09:36;;;;;;;3.15;2.90;;;;;;;;;;5014765;28;20612;-48
2021/09/19 01:12:03;;;;;;;3.42;2.85;;;;;;;;;;5015636;28;20268;-47
2021/09/19 01:14:29;;;;;;;3.75;3.42;;;;;;;;;;5014744;28;20461;-47
2021/09/19 01:16:57;;;;;;;3.50;3.17;;;;;;;;;;5017406;28;20540;-48
2021/09/19 01:19:24;;;;;;;3.40;3.08;;;;;;;;;;5014664;28;20464;-48
2021/09/19 01:21:52;;;;;;;3.28;3.00;;;;;;;;;;5022722;28;20207;-48
2021/09/19 01:24:18;;;;;;;3.03;2.83;;;;;;;;;;5015001;28;20276;-48
2021/09/19 01:26:44;;;;;;;3.55;3.25;;;;;;;;;;5015031;28;20188;-48
2021/09/19 01:29:10;;;;;;;3.05;2.85;;;;;;;;;;5013916;28;20169;-48
2021/09/19 01:31:38;;;;;;;4.38;3.10;;;;;;;;;;5033207;28;20188;-48
2021/09/19 01:34:04;;;;;;;3.13;2.92;;;;;;;;;;5022207;28;20239;-48
2021/09/19 01:36:35;;;;;;;2.92;2.72;;;;;;;;;;5014673;28;20173;-48
2021/09/19 01:39:01;;;;;;;3.03;2.83;;;;;;;;;;5013790;28;20228;-47
2021/09/19 01:41:27;;;;;;;3.20;3.00;;;;;;;;;;5014056;28;20602;-48
2021/09/19 01:43:56;;;;;;;3.08;2.88;;;;;;;;;;5015051;28;20184;-48
2021/09/19 01:46:22;;;;;;;2.90;2.70;;;;;;;;;;5033818;28;20206;-48
2021/09/19 01:48:48;;;;;;;2.83;2.63;;;;;;;;;;5033843;28;20524;-48
2021/09/19 01:51:14;;;;;;;2.97;2.78;;;;;;;;;;5016392;28;20567;-48
2021/09/19 01:53:40;;;;;;;2.97;2.78;;;;;;;;;;5014542;28;20200;-48
2021/09/19 01:56:07;;;;;;;3.10;2.80;;;;;;;;;;5030863;28;20218;-48
2021/09/19 01:58:39;;;;;;;2.90;2.70;;;;;;;;;;5026553;28;20211;-48
2021/09/19 02:01:05;;;;;;;3.22;2.50;;;;;;;;;;5014748;28;20200;-48
2021/09/19 02:03:31;;;;;;;3.90;2.90;;;;;;;;;;5014081;28;20481;-48
2021/09/19 02:05:57;;;;;;;2.85;2.65;;;;;;;;;;5014454;28;20168;-48
2021/09/19 02:08:23;;;;;;;3.13;2.90;;;;;;;;;;5013763;28;20497;-48
2021/09/19 02:10:49;;;;;;;2.78;2.58;;;;;;;;;;5013615;28;20231;-48
2021/09/19 02:13:15;;;;;;;3.13;2.83;;;;;;;;;;5014266;28;20532;-48
2021/09/19 02:15:41;;;;;;;2.95;2.55;;;;;;;;;;5025611;28;20186;-48
2021/09/19 02:18:07;;;;;;;3.22;3.03;;;;;;;;;;5024604;28;20204;-48
2021/09/19 02:20:33;;;;;;;3.58;2.80;;;;;;;;;;5021477;28;20206;-48
2021/09/19 02:22:59;;;;;;;2.92;2.72;;;;;;;;;;5030884;28;20255;-48
2021/09/19 02:25:25;;;;;;;2.95;2.75;;;;;;;;;;5018997;28;20288;-48
2021/09/19 02:27:51;;;;;;;2.90;2.70;;;;;;;;;;5013270;28;20177;-48
2021/09/19 02:30:17;;;;;;;4.43;3.28;;;;;;;;;;5025216;28;20184;-48
2021/09/19 02:32:44;;;;;;;3.72;3.42;;;;;;;;;;5019668;28;20630;-48
2021/09/19 02:35:10;;;;;;;3.45;2.78;;;;;;;;;;5014165;28;20216;-47
2021/09/19 02:37:37;;;;;;;3.80;3.22;;;;;;;;;;5012930;28;20223;-50
2021/09/19 02:40:03;;;;;;;3.00;2.80;;;;;;;;;;5018617;28;20234;-50
2021/09/19 02:42:29;;;;;;;4.38;3.25;;;;;;;;;;5013579;28;20185;-50
2021/09/19 02:44:55;;;;;;;3.30;3.00;;;;;;;;;;5014385;28;20196;-48
2021/09/19 02:47:21;;;;;;;3.80;3.42;;;;;;;;;;5016948;28;20180;-48
2021/09/19 02:49:47;;;;;;;3.33;3.13;;;;;;;;;;5023795;28;20597;-47
2021/09/19 02:52:13;;;;;;;3.13;2.92;;;;;;;;;;5037034;28;20172;-47
2021/09/19 02:54:39;;;;;;;3.50;3.20;;;;;;;;;;5031994;28;20177;-48
2021/09/19 02:57:05;;;;;;;3.17;2.97;;;;;;;;;;5026811;28;20182;-47
2021/09/19 02:59:31;;;;;;;5.20;3.10;;;;;;;;;;5022774;28;20516;-48
2021/09/19 03:01:57;;;;;;;3.30;3.00;;;;;;;;;;5016781;28;20200;-48
2021/09/19 03:04:23;;;;;;;3.85;3.45;;;;;;;;;;5017417;28;20188;-48
2021/09/19 03:06:49;;;;;;;3.45;3.15;;;;;;;;;;5016946;28;20187;-48
2021/09/19 03:09:15;;;;;;;3.55;3.25;;;;;;;;;;5024285;28;20862;-47
2021/09/19 03:11:41;;;;;;;3.42;3.13;;;;;;;;;;5016995;28;20252;-48
2021/09/19 03:14:07;;;;;;;3.72;3.40;;;;;;;;;;5017105;28;20300;-48
2021/09/19 03:16:33;;;;;;;5.55;3.58;;;;;;;;;;5017084;28;20212;-48
2021/09/19 03:18:59;;;;;;;3.00;2.80;;;;;;;;;;5016259;28;20198;-48
2021/09/19 03:21:25;;;;;;;3.70;3.40;;;;;;;;;;5021822;28;20751;-48
2021/09/19 03:23:51;;;;;;;3.72;3.42;;;;;;;;;;5036518;28;20164;-48
2021/09/19 03:26:17;;;;;;;3.63;3.30;;;;;;;;;;5017822;28;20176;-48
2021/09/19 03:28:43;;;;;;;3.25;3.05;;;;;;;;;;5015945;28;20195;-47
2021/09/19 03:31:09;;;;;;;3.75;3.45;;;;;;;;;;5016194;28;20466;-48
2021/09/19 03:33:35;;;;;;;3.83;3.53;;;;;;;;;;5016522;28;20177;-48
2021/09/19 03:36:01;;;;;;;3.70;3.35;;;;;;;;;;5016044;28;20482;-48
2021/09/19 03:38:27;;;;;;;3.95;3.60;;;;;;;;;;5015949;28;20232;-48
2021/09/19 03:40:53;;;;;;;3.67;3.28;;;;;;;;;;5030424;28;20176;-48
2021/09/19 03:43:19;;;;;;;3.83;3.53;;;;;;;;;;5016201;28;20259;-48
2021/09/19 03:45:45;;;;;;;3.80;3.50;;;;;;;;;;5016576;28;20534;-48
2021/09/19 03:48:11;;;;;;;3.70;3.38;;;;;;;;;;5015946;28;20208;-48
2021/09/19 03:50:37;;;;;;;3.75;3.45;;;;;;;;;;5027366;28;20585;-48
2021/09/19 03:53:03;;;;;;;3.30;3.10;;;;;;;;;;5035777;28;20274;-48
2021/09/19 03:55:30;;;;;;;3.67;3.38;;;;;;;;;;5024456;28;20192;-48
2021/09/19 03:57:56;;;;;;;3.38;3.08;;;;;;;;;;5023479;28;20199;-48
2021/09/19 04:00:23;;;;;;;3.67;3.33;;;;;;;;;;5026112;28;20217;-48
2021/09/19 04:02:48;;;;;;;3.75;3.40;;;;;;;;;;5015793;28;20590;-48
2021/09/19 04:05:14;;;;;;;3.22;3.03;;;;;;;;;;5016060;28;20663;-48
2021/09/19 04:07:41;;;;;;;3.38;3.08;;;;;;;;;;5015502;28;20413;-47
2021/09/19 04:10:08;;;;;;;3.05;2.85;;;;;;;;;;5022736;28;20234;-48
2021/09/19 04:12:34;;;;;;;3.25;2.95;;;;;;;;;;5035883;28;20172;-48
2021/09/19 04:15:00;;;;;;;3.45;2.92;;;;;;;;;;5019444;28;20231;-47
2021/09/19 04:17:26;;;;;;;3.75;3.10;;;;;;;;;;5015445;28;20173;-46
2021/09/19 04:19:53;;;;;;;3.05;2.85;;;;;;;;;;5022024;28;20191;-48
2021/09/19 04:22:19;;;;;;;3.40;3.10;;;;;;;;;;5025013;28;20192;-48
2021/09/19 04:24:45;;;;;;;3.22;3.03;;;;;;;;;;5012470;28;20473;-48
2021/09/19 04:27:11;;;;;;;3.75;3.30;;;;;;;;;;5015336;28;20169;-47
2021/09/19 04:29:37;;;;;;;3.55;3.25;;;;;;;;;;5018236;28;20207;-47
2021/09/19 04:32:03;;;;;;;3.13;2.92;;;;;;;;;;5016479;28;20203;-47
2021/09/19 04:34:30;;;;;;;3.38;3.08;;;;;;;;;;5015676;28;20178;-48
2021/09/19 04:36:56;;;;;;;3.10;2.90;;;;;;;;;;5015060;28;20180;-48
2021/09/19 04:39:22;;;;;;;3.15;2.85;;;;;;;;;;5015733;28;20603;-48
2021/09/19 04:41:48;;;;;;;3.10;2.90;;;;;;;;;;5034907;28;20168;-48
2021/09/19 04:44:14;;;;;;;4.45;3.20;;;;;;;;;;5035030;28;20536;-48
2021/09/19 04:46:40;;;;;;;3.05;2.85;;;;;;;;;;5020893;28;20225;-48
2021/09/19 04:49:06;;;;;;;2.90;2.70;;;;;;;;;;5034371;28;20266;-48
2021/09/19 04:51:32;;;;;;;3.50;3.20;;;;;;;;;;5016345;28;20191;-48
2021/09/19 04:53:58;;;;;;;2.92;2.72;;;;;;;;;;5017527;28;20263;-48
2021/09/19 04:56:23;;;;;;;2.67;2.45;;;;;;;;;;5027259;28;20600;-48
2021/09/19 04:58:49;;;;;;;2.90;2.70;;;;;;;;;;5014503;28;20207;-48
2021/09/19 05:01:15;;;;;;;3.33;2.63;;;;;;;;;;5023499;28;20211;-48
2021/09/19 05:03:41;;;;;;;3.00;2.70;;;;;;;;;;5028511;28;20569;-47
2021/09/19 05:06:07;;;;;;;3.33;2.90;;;;;;;;;;5019379;28;20188;-47
2021/09/19 05:08:33;;;;;;;2.70;2.50;;;;;;;;;;5014076;28;20195;-48
2021/09/19 05:11:01;;;;;;;2.80;2.50;;;;;;;;;;5022700;28;20176;-48
2021/09/19 05:13:27;;;;;;;3.20;2.90;;;;;;;;;;5015164;28;20192;-48
2021/09/19 05:15:53;;;;;;;2.90;2.70;;;;;;;;;;5028137;28;20171;-48
2021/09/19 05:18:19;;;;;;;4.85;2.50;;;;;;;;;;5017726;28;20208;-48
2021/09/19 05:20:45;;;;;;;3.67;2.75;;;;;;;;;;5023168;28;20183;-48
2021/09/19 05:23:11;;;;;;;3.08;2.72;;;;;;;;;;5016751;28;20259;-48
2021/09/19 05:25:37;;;;;;;2.47;2.30;;;;;;;;;;5014747;28;20177;-48
2021/09/19 05:28:03;;;;;;;3.03;2.83;;;;;;;;;;5014193;28;20549;-48
2021/09/19 05:30:29;;;;;;;2.60;2.40;;;;;;;;;;5015859;28;20230;-48
2021/09/19 05:32:55;;;;;;;2.63;2.42;;;;;;;;;;5014283;28;21758;-47
2021/09/19 05:35:21;;;;;;;2.58;2.40;;;;;;;;;;5014508;28;20207;-48
2021/09/19 05:37:47;;;;;;;2.80;2.60;;;;;;;;;;5014045;28;20515;-48
2021/09/19 05:40:14;;;;;;;2.83;2.55;;;;;;;;;;5020665;28;20172;-48
2021/09/19 05:42:40;;;;;;;2.83;2.63;;;;;;;;;;5034671;28;20206;-48
2021/09/19 05:45:06;;;;;;;2.65;2.45;;;;;;;;;;5027371;28;20212;-48
2021/09/19 05:47:32;;;;;;;3.28;2.97;;;;;;;;;;5013807;28;20184;-48
2021/09/19 05:49:58;;;;;;;3.88;2.90;;;;;;;;;;5015993;28;20569;-48
2021/09/19 05:52:24;;;;;;;2.88;2.67;;;;;;;;;;5014265;28;20208;-48
2021/09/19 05:54:50;;;;;;;2.75;2.55;;;;;;;;;;5018992;28;20445;-48
2021/09/19 05:57:16;;;;;;;3.78;2.70;;;;;;;;;;5033764;28;20188;-48
2021/09/19 05:59:42;;;;;;;2.53;2.40;;;;;;;;;;5032085;28;20235;-48
2021/09/19 06:02:08;;;;;;;2.70;2.50;;;;;;;;;;5014108;28;20584;-48
2021/09/19 06:04:34;;;;;;;3.90;2.42;;;;;;;;;;5014478;28;20233;-48
2021/09/19 06:07:00;;;;;;;3.92;2.67;;;;;;;;;;5013782;28;20830;-47
2021/09/19 06:09:26;;;;;;;2.80;2.60;;;;;;;;;;5014282;28;20358;-48
2021/09/19 06:11:52;;;;;;;2.72;2.53;;;;;;;;;;5031704;28;20210;-48
2021/09/19 06:14:18;;;;;;;3.00;2.63;;;;;;;;;;5023905;28;20544;-48
2021/09/19 06:16:44;;;;;;;3.20;2.90;;;;;;;;;;5014088;28;20258;-48
2021/09/19 06:19:10;;;;;;;2.90;2.67;;;;;;;;;;5014864;28;20208;-48
2021/09/19 06:21:36;;;;;;;2.45;2.28;;;;;;;;;;5028087;28;20546;-48
2021/09/19 06:24:02;;;;;;;2.78;2.58;;;;;;;;;;5036048;28;20172;-47
2021/09/19 06:26:28;;;;;;;3.25;2.63;;;;;;;;;;5017915;28;20189;-48
2021/09/19 06:28:54;;;;;;;2.78;2.58;;;;;;;;;;5017230;28;20221;-47
2021/09/19 06:31:22;;;;;;;3.28;2.60;;;;;;;;;;5032004;28;20180;-48
2021/09/19 06:33:49;;;;;;;3.03;2.72;;;;;;;;;;5038050;28;20168;-50
2021/09/19 06:36:15;;;;;;;2.70;2.50;;;;;;;;;;5021168;28;20275;-50
2021/09/19 06:38:41;;;;;;;2.83;2.63;;;;;;;;;;5017037;28;20591;-50
2021/09/19 06:41:07;;;;;;;3.35;2.47;;;;;;;;;;5029543;28;20203;-47
2021/09/19 06:43:33;;;;;;;3.15;2.85;;;;;;;;;;5017443;28;20200;-48
2021/09/19 06:45:59;;;;;;;5.13;2.50;;;;;;;;;;5031211;28;20184;-50
2021/09/19 06:48:25;;;;;;;2.80;2.60;;;;;;;;;;5036470;28;20544;-50
2021/09/19 06:50:51;;;;;;;3.05;2.80;;;;;;;;;;5027436;28;20259;-48
2021/09/19 06:53:16;;;;;;;3.25;2.95;;;;;;;;;;5017385;28;20307;-48
2021/09/19 06:55:42;;;;;;;3.17;2.92;;;;;;;;;;5029130;28;20627;-47
2021/09/19 06:58:08;;;;;;;3.08;2.60;;;;;;;;;;5020796;28;20503;-48
2021/09/19 07:00:34;;;;;;;3.30;2.60;;;;;;;;;;5017079;28;20173;-48
2021/09/19 07:03:00;;;;;;;2.92;2.70;;;;;;;;;;5017403;28;20176;-47
2021/09/19 07:05:26;;;;;;;2.90;2.70;;;;;;;;;;5020794;28;20185;-48
2021/09/19 07:07:52;;;;;;;3.15;2.85;;;;;;;;;;5018043;28;20214;-48
2021/09/19 07:10:18;;;;;;;3.45;3.15;;;;;;;;;;5034712;28;20172;-48
2021/09/19 07:12:45;;;;;;;3.45;2.97;;;;;;;;;;5016786;28;20177;-48
2021/09/19 07:15:11;;;;;;;3.00;2.80;;;;;;;;;;5017293;28;20188;-48
2021/09/19 07:17:37;;;;;;;3.35;3.05;;;;;;;;;;5026637;28;20567;-47
2021/09/19 07:20:03;;;;;;;3.05;2.80;;;;;;;;;;5029200;28;20467;-47
2021/09/19 07:22:29;;;;;;;4.45;3.15;;;;;;;;;;5032247;28;20207;-48
2021/09/19 07:24:55;;;;;;;3.90;3.15;;;;;;;;;;5021670;28;20208;-48
2021/09/19 07:27:21;;;;;;;6.88;4.10;;;;;;;;;;5035741;28;20535;-48
2021/09/19 07:29:48;;;;;;;6.70;3.78;;;;;;;;;;5028349;28;20207;-48
2021/09/19 07:32:14;;;;;;;5.50;3.30;;;;;;;;;;5019256;28;20190;-48
2021/09/19 07:34:41;;;;;;;5.82;3.60;;;;;;;;;;5036264;28;20180;-47
2021/09/19 07:37:08;;;;;;;6.65;3.47;;;;;;;;;;5024468;28;20223;-47
2021/09/19 07:39:35;;;;;;;5.05;3.10;;;;;;;;;;5010292;28;20219;-47
2021/09/19 07:42:01;;;;;;;4.18;3.20;;;;;;;;;;4996392;28;20181;-48
2021/09/19 07:44:27;;;;;;;5.05;3.10;;;;;;;;;;4997244;28;20166;-48
2021/09/19 07:46:53;;;;;;;2.95;2.70;;;;;;;;;;4996302;28;20216;-48
2021/09/19 07:49:20;;;;;;;5.30;3.10;;;;;;;;;;4996938;28;20180;-47
2021/09/19 07:51:46;;;;;;;5.00;3.13;;;;;;;;;;5016269;28;20191;-47
2021/09/19 07:54:13;;;;;;;3.13;2.80;;;;;;;;;;5000238;28;20201;-48
2021/09/19 07:56:39;;;;;;;7.50;2.85;;;;;;;;;;5014106;28;20173;-48
2021/09/19 07:59:05;;;;;;;6.65;3.00;;;;;;;;;;4995699;28;20219;-48
2021/09/19 08:01:31;;;;;;;6.90;2.83;;;;;;;;;;5010302;28;20208;-48
2021/09/19 08:03:57;;;;;;;5.10;2.65;;;;;;;;;;5016114;28;20160;-47
2021/09/19 08:06:23;;;;;;;5.50;3.15;;;;;;;;;;5011972;28;20260;-48
2021/09/19 08:08:50;;;;;;;7.60;3.20;;;;;;;;;;4995863;28;20553;-47
2021/09/19 08:11:16;;;;;;;8.05;2.75;;;;;;;;;;5010714;28;20181;-48
2021/09/19 08:13:42;;;;;;;7.93;3.55;;;;;;;;;;5009589;28;20185;-48
2021/09/19 08:16:09;;;;;;;9.93;4.63;;;;;;;;;;4996252;28;20239;-48
2021/09/19 08:18:35;;;;;;;15.70;4.88;;;;;;;;;;4995221;28;20197;-48
2021/09/19 08:21:02;;;;;;;15.27;5.03;;;;;;;;;;5004703;28;20451;-47
2021/09/19 08:23:28;;;;;;;7.72;4.53;;;;;;;;;;5015661;28;20253;-48
2021/09/19 08:25:54;;;;;;;8.48;4.22;;;;;;;;;;5002155;28;20274;-48
2021/09/19 08:28:20;;;;;;;9.70;4.30;;;;;;;;;;5010101;28;20180;-48
2021/09/19 08:30:46;;;;;;;7.30;3.90;;;;;;;;;;5004534;28;20259;-48
2021/09/19 08:33:12;;;;;;;10.57;3.90;;;;;;;;;;4996109;28;20240;-48
2021/09/19 08:35:38;;;;;;;7.38;3.47;;;;;;;;;;4995523;28;20556;-48
2021/09/19 08:38:04;;;;;;;5.18;3.65;;;;;;;;;;5005506;28;20208;-48
2021/09/19 08:40:30;;;;;;;7.75;3.45;;;;;;;;;;5023194;28;20182;-48
2021/09/19 08:42:57;;;;;;;5.38;3.70;;;;;;;;;;5034573;28;20536;-47
2021/09/19 08:45:23;;;;;;;5.82;3.47;;;;;;;;;;5017197;28;20630;-48
2021/09/19 08:47:50;;;;;;;8.88;3.63;;;;;;;;;;5014227;28;20536;-47
2021/09/19 08:50:17;;;;;;;8.32;3.58;;;;;;;;;;5021611;28;20176;-48
2021/09/19 08:52:43;;;;;;;8.13;3.42;;;;;;;;;;5027381;28;20180;-47
2021/09/19 08:55:09;;;;;;;5.30;3.20;;;;;;;;;;5015252;28;20201;-48
2021/09/19 08:57:35;;;;;;;8.13;3.22;;;;;;;;;;5014478;28;20165;-48
2021/09/19 09:00:04;;;;;;;3.72;2.60;;;;;;;;;;5017289;28;20973;-47
2021/09/19 09:02:43;;;;;;;6.90;3.00;;;;;;;;;;5015150;28;20168;-48
2021/09/19 09:05:14;;;;;;;3.38;2.78;;;;;;;;;;5015380;28;20476;-48
2021/09/19 09:07:40;;;;;;;6.72;2.95;;;;;;;;;;5014286;28;20583;-47
2021/09/19 09:10:06;;;;;;;3.90;2.85;;;;;;;;;;5017103;28;20185;-47
2021/09/19 09:12:33;;;;;;;3.03;2.70;;;;;;;;;;5014815;28;20176;-47
2021/09/19 09:15:00;;;;;;;3.70;2.70;;;;;;;;;;5020170;28;20262;-47
2021/09/19 09:17:29;;;;;;;4.20;3.30;;;;;;;;;;5022992;28;20267;-47
2021/09/19 09:20:03;;;;;;;3.80;2.97;;;;;;;;;;5028348;28;20197;-47
2021/09/19 09:22:32;;;;;;;4.97;3.00;;;;;;;;;;5009407;28;20185;-48
2021/09/19 09:25:17;;;;;;;5.68;3.28;;;;;;;;;;5015161;28;20172;-47
2021/09/19 09:27:45;;;;;;;3.17;2.88;;;;;;;;;;5014164;28;20226;-48
2021/09/19 09:30:16;;;;;;;3.33;3.03;;;;;;;;;;5016918;28;20165;-48
2021/09/19 09:32:49;;;;;;;3.55;3.25;;;;;;;;;;5014724;28;20173;-47
2021/09/19 09:35:15;;;;;;;3.55;3.17;;;;;;;;;;5022588;28;20183;-48
2021/09/19 09:37:41;;;;;;;5.28;3.15;;;;;;;;;;5014089;28;20220;-48
2021/09/19 09:40:16;;;;;;;5.60;3.22;;;;;;;;;;5017833;28;20183;-48
2021/09/19 09:43:00;;;;;;;5.18;2.90;;;;;;;;;;5034113;28;20198;-48
2021/09/19 09:45:26;;;;;;;7.35;3.00;;;;;;;;;;5017643;28;20180;-47
2021/09/19 09:47:52;;;;;;;7.20;5.25;;;;;;;;;;5013431;28;20259;-48
2021/09/19 09:50:24;;;;;;;13.95;9.38;;;;;;;;;;5015996;28;20267;-48
2021/09/19 09:52:52;;;;;;;16.40;8.70;;;;;;;;;;5015131;28;20449;-47
2021/09/19 09:55:21;;;;;;;11.73;7.60;;;;;;;;;;5016683;28;20231;-48
2021/09/19 09:57:50;;;;;;;12.05;7.65;;;;;;;;;;5017675;28;20788;-47
2021/09/19 10:00:18;;;;;;;11.68;6.18;;;;;;;;;;5021558;28;20173;-48
2021/09/19 10:02:45;;;;;;;9.57;5.90;;;;;;;;;;5026257;28;20187;-47
2021/09/19 10:05:12;;;;;;;9.68;5.05;;;;;;;;;;5038379;28;20168;-48
2021/09/19 10:07:39;;;;;;;9.27;4.90;;;;;;;;;;5022089;28;20173;-48
2021/09/19 10:10:09;;;;;;;4.85;4.18;;;;;;;;;;5020002;28;20189;-47
2021/09/19 10:12:36;;;;;;;7.18;4.35;;;;;;;;;;5037912;28;20306;-48
2021/09/19 10:15:05;;;;;;;5.00;4.10;;;;;;;;;;5021909;28;20172;-47
2021/09/19 10:17:31;;;;;;;7.53;4.40;;;;;;;;;;5017596;28;20187;-47
2021/09/19 10:19:58;;;;;;;4.13;3.72;;;;;;;;;;5023669;28;20204;-50
2021/09/19 10:22:24;;;;;;;5.72;3.80;;;;;;;;;;5025469;28;20172;-50
2021/09/19 10:24:50;;;;;;;4.82;3.80;;;;;;;;;;5020686;28;20176;-48
2021/09/19 10:27:23;;;;;;;4.72;3.50;;;;;;;;;;5015052;28;20588;-48
2021/09/19 10:29:59;;;;;;;4.43;3.92;;;;;;;;;;5016750;28;20216;-48
2021/09/19 10:32:32;;;;;;;4.80;3.53;;;;;;;;;;4997594;28;20211;-48
2021/09/19 10:34:58;;;;;;;6.07;3.38;;;;;;;;;;5008862;28;20180;-48
2021/09/19 10:37:44;;;;;;;4.63;3.47;;;;;;;;;;5018060;28;20288;-47
2021/09/19 10:40:11;;;;;;;4.75;3.65;;;;;;;;;;4997296;28;20200;-47
2021/09/19 10:42:39;;;;;;;6.35;3.20;;;;;;;;;;5026021;28;20515;-48
2021/09/19 10:45:13;;;;;;;3.92;3.08;;;;;;;;;;5021461;28;20173;-48
2021/09/19 10:47:42;;;;;;;6.35;3.67;;;;;;;;;;5016788;28;20215;-48
2021/09/19 10:50:10;;;;;;;5.75;3.38;;;;;;;;;;5017747;28;20176;-48
2021/09/19 10:52:41;;;;;;;4.25;3.30;;;;;;;;;;5026329;28;20263;-47
2021/09/19 10:55:18;;;;;;;4.82;3.40;;;;;;;;;;5034464;28;20487;-48
2021/09/19 10:57:52;;;;;;;5.57;3.35;;;;;;;;;;5016466;28;20199;-48
2021/09/19 11:00:19;;;;;;;3.65;3.10;;;;;;;;;;5021629;28;20169;-48
2021/09/19 11:03:01;;;;;;;5.40;3.42;;;;;;;;;;5017045;28;20739;-48
2021/09/19 11:05:33;;;;;;;4.57;3.28;;;;;;;;;;5016252;28;20647;-48
2021/09/19 11:08:09;;;;;;;4.88;3.22;;;;;;;;;;5017650;28;20600;-47
2021/09/19 11:10:36;;;;;;;7.72;3.42;;;;;;;;;;5031273;28;20191;-47
2021/09/19 11:13:19;;;;;;;6.97;3.83;;;;;;;;;;5028947;28;20523;-48
2021/09/19 11:15:45;;;;;;;5.95;3.20;;;;;;;;;;5010030;28;20614;-47
2021/09/19 11:18:24;;;;;;;5.40;3.17;;;;;;;;;;5031082;28;20239;-47
2021/09/19 11:21:09;;;;;;;9.10;3.90;;;;;;;;;;5034080;28;20194;-48
2021/09/19 11:23:37;;;;;;;3.92;3.30;;;;;;;;;;4997590;28;20245;-48
2021/09/19 11:26:04;;;;;;;5.47;2.88;;;;;;;;;;5025676;28;20178;-48
2021/09/19 11:28:32;;;;;;;5.15;3.33;;;;;;;;;;5029826;28;20197;-48
2021/09/19 11:30:58;;;;;;;3.63;3.22;;;;;;;;;;5024233;28;20184;-48
2021/09/19 11:33:24;;;;;;;8.82;3.83;;;;;;;;;;5025651;28;20234;-48
2021/09/19 11:35:50;;;;;;;4.90;2.92;;;;;;;;;;5017582;28;20184;-48
2021/09/19 11:38:20;;;;;;;4.28;2.97;;;;;;;;;;5015771;28;20266;-48
2021/09/19 11:40:46;;;;;;;3.85;3.13;;;;;;;;;;5022435;28;20175;-48
2021/09/19 11:43:12;;;;;;;5.80;3.13;;;;;;;;;;5020428;28;20291;-48
2021/09/19 11:45:38;;;;;;;3.67;2.90;;;;;;;;;;5016521;28;20181;-49
2021/09/19 11:48:07;;;;;;;3.15;2.85;;;;;;;;;;5015851;28;20177;-48
2021/09/19 11:50:37;;;;;;;4.43;3.13;;;;;;;;;;5022244;28;20506;-48
2021/09/19 11:53:06;;;;;;;8.27;3.10;;;;;;;;;;5015990;28;20464;-48
2021/09/19 11:55:32;;;;;;;5.07;3.30;;;;;;;;;;5026629;28;20184;-47
2021/09/19 11:57:59;;;;;;;5.18;2.88;;;;;;;;;;5030173;28;20802;-48
2021/09/19 12:00:29;;;;;;;4.50;3.15;;;;;;;;;;5017623;28;20177;-47
2021/09/19 12:02:55;;;;;;;4.18;3.13;;;;;;;;;;5015543;28;20204;-48
2021/09/19 12:05:23;;;;;;;5.55;3.17;;;;;;;;;;5015803;28;20209;-48
2021/09/19 12:07:49;;;;;;;6.38;3.47;;;;;;;;;;5015540;28;20468;-48
2021/09/19 12:10:15;;;;;;;5.47;3.40;;;;;;;;;;5018338;28;20180;-48
2021/09/19 12:12:41;;;;;;;3.30;2.80;;;;;;;;;;5023070;28;20255;-48
2021/09/19 12:15:08;;;;;;;3.78;3.10;;;;;;;;;;5015873;28;20189;-48
2021/09/19 12:17:36;;;;;;;3.92;3.10;;;;;;;;;;5013947;28;20442;-47
2021/09/19 12:20:07;;;;;;;3.55;3.20;;;;;;;;;;5017158;28;20302;-48
2021/09/19 12:22:34;;;;;;;5.43;3.33;;;;;;;;;;5021874;28;20239;-48
2021/09/19 12:25:02;;;;;;;3.85;2.65;;;;;;;;;;5015569;28;20568;-48
2021/09/19 12:27:29;;;;;;;4.53;3.10;;;;;;;;;;5014846;28;20247;-48
2021/09/19 12:29:58;;;;;;;3.30;3.00;;;;;;;;;;5015570;28;20724;-48
2021/09/19 12:32:50;;;;;;;3.63;3.08;;;;;;;;;;5033653;28;20184;-48
2021/09/19 12:35:23;;;;;;;3.67;3.08;;;;;;;;;;5010894;28;20689;-48
2021/09/19 12:37:49;;;;;;;3.60;2.92;;;;;;;;;;5015128;28;20514;-48
2021/09/19 12:40:17;;;;;;;3.90;3.20;;;;;;;;;;5033739;28;20829;-48
2021/09/19 12:42:44;;;;;;;5.72;2.85;;;;;;;;;;5015049;28;20287;-48
2021/09/19 12:45:11;;;;;;;4.45;3.00;;;;;;;;;;5015460;28;20184;-48
2021/09/19 12:47:38;;;;;;;3.65;2.85;;;;;;;;;;5017455;28;20454;-48
2021/09/19 12:50:08;;;;;;;4.70;2.92;;;;;;;;;;5034538;28;20481;-48
2021/09/19 12:52:37;;;;;;;4.78;3.28;;;;;;;;;;5014271;28;20455;-48
2021/09/19 12:55:03;;;;;;;3.30;2.95;;;;;;;;;;5017838;28;20180;-48
2021/09/19 12:57:30;;;;;;;4.20;2.78;;;;;;;;;;5014806;28;20175;-47
2021/09/19 12:59:56;;;;;;;6.63;3.58;;;;;;;;;;5019965;28;20239;-48
2021/09/19 13:02:22;;;;;;;4.95;3.13;;;;;;;;;;5016920;28;20195;-47
2021/09/19 13:04:49;;;;;;;4.25;3.03;;;;;;;;;;5014319;28;20646;-48
2021/09/19 13:07:15;;;;;;;6.30;2.90;;;;;;;;;;5014409;28;20599;-48
2021/09/19 13:09:41;;;;;;;3.88;3.03;;;;;;;;;;5016199;28;20571;-48
2021/09/19 13:12:08;;;;;;;3.00;2.80;;;;;;;;;;5029369;28;20180;-50
2021/09/19 13:14:34;;;;;;;4.60;3.72;;;;;;;;;;5022427;28;20207;-50
2021/09/19 13:17:01;;;;;;;3.72;3.20;;;;;;;;;;5019405;28;20555;-48
2021/09/19 13:19:27;;;;;;;3.72;3.30;;;;;;;;;;5030956;28;20207;-48
2021/09/19 13:21:53;;;;;;;7.85;3.45;;;;;;;;;;5029234;28;20186;-48
2021/09/19 13:24:20;;;;;;;3.90;3.05;;;;;;;;;;5019161;28;20205;-47
2021/09/19 13:26:46;;;;;;;5.00;3.35;;;;;;;;;;5015754;28;20540;-48
2021/09/19 13:29:25;;;;;;;3.22;2.92;;;;;;;;;;5164032;27;20282;-47
2021/09/19 13:31:51;;;;;;;3.97;3.15;;;;;;;;;;5152940;27;20183;-48
2021/09/19 13:34:18;;;;;;;3.63;3.28;;;;;;;;;;5153569;27;20224;-48
2021/09/19 13:36:44;;;;;;;4.85;3.70;;;;;;;;;;5153707;27;20171;-48
2021/09/19 13:39:10;;;;;;;5.22;3.78;;;;;;;;;;5152888;27;20272;-48
2021/09/19 13:41:36;;;;;;;5.40;4.57;;;;;;;;;;5153091;27;20184;-48
2021/09/19 13:44:03;;;;;;;6.20;4.95;;;;;;;;;;5153250;27;20164;-48
2021/09/19 13:46:29;;;;;;;5.03;4.30;;;;;;;;;;5152784;27;20164;-46
2021/09/19 13:48:55;;;;;;;6.63;3.80;;;;;;;;;;5152663;27;20534;-48
2021/09/19 13:51:20;;;;;;;6.72;3.70;;;;;;;;;;5152915;27;20187;-47
2021/09/19 13:53:47;;;;;;;4.50;3.60;;;;;;;;;;5153175;27;20259;-48
2021/09/19 13:56:13;;;;;;;5.72;3.70;;;;;;;;;;5153174;27;20172;-48
2021/09/19 13:58:39;;;;;;;6.90;3.83;;;;;;;;;;5152635;27;20191;-48
2021/09/19 14:01:05;;;;;;;5.78;3.60;;;;;;;;;;5152697;27;20518;-48
2021/09/19 14:03:32;;;;;;;4.70;3.95;;;;;;;;;;5152895;27;20200;-48
2021/09/19 14:05:59;;;;;;;5.57;3.20;;;;;;;;;;5153036;27;20182;-47
2021/09/19 14:08:25;;;;;;;6.03;3.97;;;;;;;;;;5152338;27;20235;-46
2021/09/19 14:10:51;;;;;;;3.85;3.45;;;;;;;;;;5152603;27;20211;-46
2021/09/19 14:13:17;;;;;;;5.22;3.78;;;;;;;;;;5152588;27;20263;-47
2021/09/19 14:15:44;;;;;;;4.35;3.67;;;;;;;;;;5152630;27;20176;-46
2021/09/19 14:18:12;;;;;;;4.40;4.00;;;;;;;;;;5152410;27;20176;-46
2021/09/19 14:20:38;;;;;;;6.65;4.05;;;;;;;;;;5152467;27;20180;-47
2021/09/19 14:23:05;;;;;;;5.05;3.83;;;;;;;;;;5152514;27;20290;-46
2021/09/19 14:25:32;;;;;;;4.85;3.60;;;;;;;;;;5150691;27;20180;-46
2021/09/19 14:27:58;;;;;;;5.07;3.58;;;;;;;;;;5143016;27;20209;-46
2021/09/19 14:30:24;;;;;;;6.05;3.35;;;;;;;;;;5129871;28;20251;-46
2021/09/19 14:32:50;;;;;;;6.38;3.65;;;;;;;;;;5131624;28;20188;-46
2021/09/19 14:35:17;;;;;;;6.70;4.00;;;;;;;;;;5131691;28;20169;-46
2021/09/19 14:37:44;;;;;;;6.20;3.65;;;;;;;;;;5131205;28;20168;-46
2021/09/19 14:40:10;;;;;;;5.28;3.70;;;;;;;;;;5115362;28;20178;-46
2021/09/19 14:42:37;;;;;;;7.28;3.97;;;;;;;;;;5097678;28;20537;-46